createdAt,value
2022-11-25T00:02:12.921Z,91.63
2022-11-25T00:07:15.565Z,91.38
2022-11-25T00:12:18.159Z,91.04
2022-11-25T00:17:20.707Z,91.56
2022-11-25T00:22:23.213Z,91.56
2022-11-25T00:27:25.717Z,91.47
2022-11-25T00:32:28.258Z,91.03
2022-11-25T00:37:32.434Z,90.56
2022-11-25T00:42:53.783Z,90.32
2022-11-25T00:47:56.395Z,90.29
2022-11-25T00:52:59.395Z,90.43
2022-11-25T00:58:02.111Z,90.56
2022-11-25T01:03:05.199Z,89.83
2022-11-25T01:08:08.344Z,89.99
2022-11-25T01:13:13.830Z,88.87
2022-11-25T01:18:16.335Z,89.79
2022-11-25T01:23:18.890Z,90.19
2022-11-25T01:28:21.573Z,90.05
2022-11-25T01:33:25.493Z,90.28
2022-11-25T01:38:28.174Z,90.34
2022-11-25T01:43:31.387Z,90.88
2022-11-25T01:48:57.356Z,91.58
2022-11-25T01:54:03.138Z,92.27
2022-11-25T01:59:07.456Z,92.74
2022-11-25T02:04:15.673Z,92.72
2022-11-25T02:09:21.548Z,93.54
2022-11-25T02:14:26.408Z,92.81
2022-11-25T02:19:40.956Z,93.07
2022-11-25T02:24:46.491Z,93.25
2022-11-25T02:29:51.594Z,92.93
2022-11-25T02:34:55.103Z,92.19
2022-11-25T02:39:58.546Z,92.06
2022-11-25T02:45:01.480Z,92.18
2022-11-25T02:50:05.130Z,91.18
2022-11-25T02:55:08.143Z,91.15
2022-11-25T03:00:12.265Z,90.65
2022-11-25T03:05:16.288Z,90.39
2022-11-25T03:10:19.193Z,90.47
2022-11-25T03:15:22.646Z,90.00
2022-11-25T03:20:25.720Z,90.41
2022-11-25T03:25:28.333Z,90.54
2022-11-25T03:30:31.665Z,90.46
2022-11-25T03:35:37.044Z,89.67
2022-11-25T03:40:40.170Z,90.30
2022-11-25T03:45:43.014Z,88.81
2022-11-25T03:50:49.068Z,89.67
2022-11-25T03:55:51.646Z,89.56
2022-11-25T04:01:03.578Z,89.15
2022-11-25T04:06:07.723Z,88.90
2022-11-25T04:11:10.909Z,88.05
2022-11-25T04:16:26.195Z,87.64
2022-11-25T04:21:30.027Z,87.74
2022-11-25T04:26:32.965Z,88.43
2022-11-25T04:31:35.592Z,88.23
2022-11-25T04:36:38.133Z,86.98
2022-11-25T04:41:40.793Z,88.52
2022-11-25T04:46:44.347Z,89.29
2022-11-25T04:51:47.071Z,89.67
2022-11-25T04:56:50.839Z,89.61
2022-11-25T05:01:54.593Z,90.24
2022-11-25T05:07:09.061Z,89.98
2022-11-25T05:12:19.336Z,89.75
2022-11-25T05:17:30.106Z,89.45
2022-11-25T05:22:35.346Z,88.88
2022-11-25T05:27:39.714Z,89.73
2022-11-25T05:32:45.471Z,89.25
2022-11-25T05:37:48.708Z,89.52
2022-11-25T05:42:51.488Z,89.42
2022-11-25T05:47:55.718Z,89.11
2022-11-25T05:53:01.447Z,89.43
2022-11-25T05:58:06.303Z,89.06
2022-11-25T06:03:09.994Z,88.94
2022-11-25T06:08:14.024Z,89.04
2022-11-25T06:13:16.727Z,89.58
2022-11-25T06:18:20.794Z,91.10
2022-11-25T06:23:26.046Z,90.54
2022-11-25T06:28:28.718Z,90.59
2022-11-25T06:33:32.981Z,89.68
2022-11-25T06:38:38.255Z,90.08
2022-11-25T06:43:41.201Z,89.76
2022-11-25T06:48:43.770Z,89.38
2022-11-25T06:53:46.474Z,90.13
2022-11-25T06:58:50.430Z,89.59
2022-11-25T07:03:56.817Z,89.91
2022-11-25T07:08:59.745Z,89.59
2022-11-25T07:14:06.391Z,89.24
2022-11-25T07:19:11.486Z,89.01
2022-11-25T07:24:16.675Z,88.77
2022-11-25T07:29:51.582Z,88.72
2022-11-25T07:34:43.575Z,88.41
2022-11-25T07:39:46.138Z,87.48
2022-11-25T07:44:49.437Z,86.28
2022-11-25T07:50:21.625Z,86.83
2022-11-25T07:55:26.198Z,86.97
2022-11-25T08:00:28.851Z,87.17
2022-11-25T08:05:33.423Z,86.65
2022-11-25T08:10:41.152Z,86.91
2022-11-25T08:15:43.819Z,86.62
2022-11-25T08:20:46.456Z,86.41
2022-11-25T08:25:50.648Z,86.63
2022-11-25T08:31:01.903Z,86.15
2022-11-25T08:36:06.175Z,85.98
2022-11-25T08:41:16.487Z,85.61
2022-11-25T08:46:22.598Z,86.18
2022-11-25T08:51:30.345Z,86.57
2022-11-25T08:56:39.472Z,87.36
2022-11-25T09:01:42.121Z,88.10
2022-11-25T09:06:44.851Z,87.66
2022-11-25T09:11:47.491Z,87.59
2022-11-25T09:16:50.132Z,87.23
2022-11-25T09:21:52.793Z,86.91
2022-11-25T09:26:55.374Z,87.00
2022-11-25T09:31:58.929Z,87.12
2022-11-25T09:37:01.462Z,87.14
2022-11-25T09:42:22.598Z,88.49
2022-11-25T09:47:47.612Z,87.88
2022-11-25T09:53:05.907Z,87.60
2022-11-25T09:58:37.287Z,87.32
2022-11-25T10:03:52.772Z,87.44
2022-11-25T10:09:02.358Z,86.84
2022-11-25T10:14:17.615Z,87.24
2022-11-25T10:19:32.208Z,87.39
2022-11-25T10:24:39.878Z,87.17
2022-11-25T10:29:48.982Z,86.97
2022-11-25T10:35:00.976Z,87.65
2022-11-25T10:40:07.303Z,87.94
2022-11-25T10:45:16.510Z,87.56
2022-11-25T10:50:25.200Z,86.99
2022-11-25T10:56:01.805Z,86.65
2022-11-25T11:01:25.737Z,85.62
2022-11-25T11:06:32.124Z,85.78
2022-11-25T11:11:49.880Z,85.43
2022-11-25T11:18:09.067Z,85.86
2022-11-25T11:23:14.361Z,85.46
2022-11-25T11:28:46.308Z,85.64
2022-11-25T11:33:48.631Z,84.35
2022-11-25T11:39:07.499Z,85.89
2022-11-25T11:44:32.255Z,86.15
2022-11-25T11:49:57.157Z,85.79
2022-11-25T11:56:11.868Z,85.60
2022-11-25T12:01:45.958Z,86.71
2022-11-25T12:07:03.404Z,86.42
2022-11-25T12:12:14.744Z,85.67
2022-11-25T12:17:42.487Z,85.98
2022-11-25T12:22:49.784Z,85.83
2022-11-25T12:28:03.816Z,86.10
2022-11-25T12:33:22.199Z,85.85
2022-11-25T12:39:02.037Z,86.30
2022-11-25T12:44:20.145Z,85.89
2022-11-25T12:49:28.075Z,85.94
2022-11-25T12:54:52.464Z,86.35
2022-11-25T13:05:54.031Z,86.77
2022-11-25T13:11:28.854Z,86.49
2022-11-25T13:16:32.622Z,86.26
2022-11-25T13:21:35.685Z,86.72
2022-11-25T13:26:49.548Z,87.17
2022-11-25T13:31:59.487Z,87.90
2022-11-25T13:37:23.460Z,88.99
2022-11-25T13:42:26.723Z,88.24
2022-11-25T13:47:32.008Z,88.13
2022-11-25T13:52:42.381Z,87.80
2022-11-25T13:58:10.521Z,87.78
2022-11-25T14:03:20.989Z,87.50
2022-11-25T14:08:34.266Z,86.95
2022-11-25T14:14:02.525Z,87.90
2022-11-25T14:25:23.917Z,88.63
2022-11-25T14:30:27.215Z,88.94
2022-11-25T14:35:38.953Z,88.68
2022-11-25T14:40:58.930Z,88.49
2022-11-25T14:46:21.494Z,88.02
2022-11-25T14:51:27.364Z,87.96
2022-11-25T14:56:33.912Z,87.24
2022-11-25T15:01:38.846Z,87.49
2022-11-25T15:06:48.479Z,86.75
2022-11-25T15:11:57.658Z,86.43
2022-11-25T15:17:01.391Z,86.29
2022-11-25T15:22:23.623Z,86.88
2022-11-25T15:27:29.014Z,85.85
2022-11-25T15:32:37.543Z,86.62
2022-11-25T15:37:40.084Z,86.95
2022-11-25T15:42:42.676Z,86.93
2022-11-25T15:47:45.590Z,87.46
2022-11-25T15:52:56.098Z,87.67
2022-11-25T15:58:20.275Z,88.90
2022-11-25T16:03:23.881Z,89.01
2022-11-25T16:08:32.635Z,88.93
2022-11-25T16:13:37.462Z,88.59
2022-11-25T16:18:58.018Z,87.87
2022-11-25T16:24:24.596Z,87.68
2022-11-25T16:29:31.917Z,87.50
2022-11-25T16:34:34.642Z,88.04
2022-11-25T16:39:38.854Z,88.07
2022-11-25T16:44:45.568Z,88.08
2022-11-25T16:49:48.428Z,88.38
2022-11-25T16:54:51.584Z,88.82
2022-11-25T16:59:58.927Z,88.84
2022-11-25T17:05:17.714Z,89.13
2022-11-25T17:10:21.341Z,89.22
2022-11-25T17:15:32.677Z,89.03
2022-11-25T17:20:35.411Z,88.76
2022-11-25T17:25:38.016Z,88.57
2022-11-25T17:30:40.823Z,89.62
2022-11-25T17:35:43.877Z,89.57
2022-11-25T17:40:47.563Z,89.03
2022-11-25T17:45:50.186Z,89.77
2022-11-25T17:50:52.773Z,89.14
2022-11-25T17:55:56.257Z,88.82
2022-11-25T18:00:58.922Z,88.81
2022-11-25T18:06:03.117Z,89.79
2022-11-25T18:11:07.152Z,90.59
2022-11-25T18:16:10.853Z,90.27
2022-11-25T18:21:13.444Z,89.91
2022-11-25T18:26:16.086Z,89.63
2022-11-25T18:31:18.859Z,89.48
2022-11-25T18:36:21.634Z,89.28
2022-11-25T18:41:24.315Z,89.39
2022-11-25T18:46:27.243Z,88.83
2022-11-25T18:51:29.915Z,89.19
2022-11-25T18:56:33.755Z,89.50
2022-11-25T19:01:36.339Z,89.85
2022-11-25T19:06:41.596Z,89.77
2022-11-25T19:11:50.190Z,89.66
2022-11-25T19:16:52.944Z,89.98
2022-11-25T19:21:55.607Z,90.31
2022-11-25T19:26:58.211Z,90.10
2022-11-25T19:32:02.655Z,90.17
2022-11-25T19:37:05.626Z,89.66
2022-11-25T19:42:09.911Z,89.48
2022-11-25T19:47:21.035Z,89.25
2022-11-25T19:52:30.745Z,89.45
2022-11-25T19:57:33.350Z,89.25
2022-11-25T20:02:36.495Z,89.14
2022-11-25T20:07:39.327Z,88.85
2022-11-25T20:12:42.519Z,88.95
2022-11-25T20:17:52.305Z,89.25
2022-11-25T20:23:17.804Z,89.88
2022-11-25T20:28:23.148Z,89.22
2022-11-25T20:33:28.779Z,88.93
2022-11-25T20:38:33.706Z,88.71
2022-11-25T20:43:43.387Z,89.26
2022-11-25T20:48:46.096Z,89.08
2022-11-25T20:53:57.283Z,88.75
2022-11-25T20:58:59.903Z,88.45
2022-11-25T21:04:02.576Z,88.27
2022-11-25T21:09:07.128Z,88.61
2022-11-25T21:14:15.681Z,88.58
2022-11-25T21:19:18.665Z,89.01
2022-11-25T21:24:34.253Z,89.64
2022-11-25T21:29:36.948Z,89.91
2022-11-25T21:34:40.041Z,89.40
2022-11-25T21:39:42.979Z,89.37
2022-11-25T21:44:46.478Z,89.00
2022-11-25T21:49:50.074Z,89.27
2022-11-25T21:54:52.876Z,89.11
2022-11-25T21:59:56.033Z,89.11
2022-11-25T22:04:59.043Z,88.55
2022-11-25T22:10:01.560Z,88.82
2022-11-25T22:15:12.960Z,88.92
2022-11-25T22:20:25.446Z,89.45
2022-11-25T22:25:31.414Z,88.93
2022-11-25T22:30:34.395Z,89.54
2022-11-25T22:35:36.931Z,91.26
2022-11-25T22:40:41.025Z,91.82
2022-11-25T22:45:44.382Z,92.58
2022-11-25T22:50:47.003Z,93.64
2022-11-25T22:55:50.498Z,93.71
2022-11-25T23:00:53.241Z,92.76
2022-11-25T23:05:57.113Z,92.93
2022-11-25T23:10:59.835Z,92.68
2022-11-25T23:16:04.758Z,93.59
2022-11-25T23:21:16.644Z,94.31
2022-11-25T23:26:19.180Z,94.62
2022-11-25T23:31:21.756Z,94.29
2022-11-25T23:36:45.619Z,94.59
2022-11-25T23:41:49.000Z,94.42
2022-11-25T23:46:53.987Z,95.38
2022-11-25T23:52:03.337Z,95.23
2022-11-25T23:57:17.193Z,95.19
